Adrian, Michigan
Current Conditions -  °F | °C
As of 2:53 AM on Saturday 29 Nov 2014 (Local Time) from KADG Reporting Station
Overcast Overcast  
Wind Chill: -5°   Ceiling: 7000
Heat Index: -2°   Visibility: 10mi
Dew Point: -5°   Wind: 6mph
Humidity: 78%   Direction: 160°SSE
Pressure: 30.03"   Gusts: NA
Location:  41.9°N, 84.04°W
Report Text: KADG 290753Z AUTO 16005KT 10SM OVC070 M02/M05 A3003 RMK AO2 SLP181 T10171050
Loading
Personal Weather Stations






























Interactive Weather Map New forecast layout! Learn more

10-Day Weather Forecast

Advertisements
Track Severe Weather on mobile